createdAt,value
2018-06-15T05:04:26.087Z,17.21
2018-06-15T05:09:36.603Z,17.29
2018-06-15T05:14:39.942Z,17.35
2018-06-15T05:19:43.447Z,17.53
2018-06-15T05:24:46.787Z,17.70
2018-06-15T05:29:50.806Z,17.88
2018-06-15T05:34:54.126Z,18.06
2018-06-15T05:39:57.475Z,18.27
2018-06-15T05:45:00.807Z,18.38
2018-06-15T05:50:16.751Z,18.37
2018-06-15T05:55:20.090Z,18.29
2018-06-15T06:00:24.183Z,18.26
2018-06-15T06:05:27.508Z,18.27
2018-06-15T06:10:30.846Z,18.30
2018-06-15T06:15:34.937Z,18.37
2018-06-15T06:20:38.276Z,18.45
2018-06-15T06:25:41.754Z,18.50
2018-06-15T06:30:45.103Z,18.59
2018-06-15T06:35:49.211Z,18.70
2018-06-15T06:40:52.550Z,18.72
2018-06-15T06:45:55.895Z,18.82
2018-06-15T06:50:59.999Z,18.98
2018-06-15T06:56:04.095Z,19.24
2018-06-15T07:01:07.425Z,19.28
2018-06-15T07:06:10.824Z,19.40
2018-06-15T07:11:14.128Z,19.54
2018-06-15T07:16:17.455Z,19.65
2018-06-15T07:21:20.809Z,19.55
2018-06-15T07:26:24.918Z,19.56
2018-06-15T07:31:29.006Z,19.57
2018-06-15T07:36:32.335Z,19.68
2018-06-15T07:41:35.673Z,19.64
2018-06-15T07:46:39.012Z,19.76
2018-06-15T07:51:42.338Z,19.58
2018-06-15T07:56:45.676Z,19.74
2018-06-15T08:01:49.016Z,19.62
2018-06-15T08:06:52.345Z,19.48
2018-06-15T08:11:56.459Z,19.40
2018-06-15T08:16:59.959Z,19.41
2018-06-15T08:22:03.304Z,19.53
2018-06-15T08:27:06.644Z,19.71
2018-06-15T08:32:10.019Z,19.96
2018-06-15T08:37:13.367Z,20.10
2018-06-15T08:42:17.521Z,20.29
2018-06-15T08:47:21.624Z,20.43
2018-06-15T08:52:25.723Z,20.51
2018-06-15T08:57:29.083Z,20.58
2018-06-15T09:02:32.458Z,20.63
2018-06-15T09:07:35.798Z,20.50
2018-06-15T09:12:39.254Z,20.44
2018-06-15T09:17:42.610Z,20.46
2018-06-15T09:22:46.746Z,20.61
2018-06-15T09:27:51.139Z,20.68
2018-06-15T09:32:54.482Z,20.83
2018-06-15T09:37:57.810Z,20.76
2018-06-15T09:43:01.904Z,20.36
2018-06-15T09:48:05.255Z,20.30
2018-06-15T09:53:08.610Z,20.31
2018-06-15T09:58:11.938Z,20.72
2018-06-15T10:03:15.261Z,20.88
2018-06-15T10:08:19.050Z,21.08
2018-06-15T10:13:22.679Z,21.29
2018-06-15T10:18:26.044Z,20.88
2018-06-15T10:23:30.150Z,20.87
2018-06-15T10:28:33.487Z,21.18
2018-06-15T10:33:37.781Z,20.76
2018-06-15T10:38:41.106Z,20.45
2018-06-15T10:43:44.447Z,20.75
2018-06-15T10:48:48.551Z,20.97
2018-06-15T10:53:51.887Z,20.93
2018-06-15T10:58:55.991Z,21.37
2018-06-15T11:03:59.320Z,21.66
2018-06-15T11:09:02.677Z,21.59
2018-06-15T11:14:05.992Z,21.48
2018-06-15T11:19:09.331Z,21.29
2018-06-15T11:24:12.663Z,21.71
2018-06-15T11:29:16.001Z,21.61
2018-06-15T11:34:20.090Z,21.66
2018-06-15T11:39:23.411Z,21.80
2018-06-15T11:44:26.758Z,22.03
2018-06-15T11:49:31.033Z,22.53
2018-06-15T11:54:34.659Z,22.66
2018-06-15T11:59:38.094Z,22.64
2018-06-15T12:04:41.459Z,23.07
2018-06-15T12:09:44.806Z,23.28
2018-06-15T12:14:48.131Z,24.05
2018-06-15T12:19:51.461Z,24.45
2018-06-15T12:24:54.792Z,24.61
2018-06-15T12:29:58.887Z,24.74
2018-06-15T12:35:02.244Z,24.63
2018-06-15T12:40:05.570Z,24.67
2018-06-15T12:45:08.927Z,25.49
2018-06-15T12:50:13.016Z,25.66
2018-06-15T12:55:16.379Z,24.72
2018-06-15T13:00:19.862Z,24.32
2018-06-15T13:05:23.227Z,25.10
2018-06-15T13:10:27.317Z,25.44
2018-06-15T13:15:30.662Z,25.11
2018-06-15T13:20:34.767Z,25.55
2018-06-15T13:25:39.739Z,26.19
2018-06-15T13:30:43.078Z,25.88
2018-06-15T13:35:47.191Z,26.31
2018-06-15T13:40:50.663Z,26.23
2018-06-15T13:45:54.022Z,26.44
2018-06-15T13:50:58.314Z,26.82
2018-06-15T13:56:01.653Z,27.25
2018-06-15T14:01:04.999Z,28.05
2018-06-15T14:06:08.332Z,28.19
2018-06-15T14:11:11.667Z,28.59
2018-06-15T14:16:15.015Z,29.01
2018-06-15T14:21:19.138Z,29.37
2018-06-15T14:26:22.734Z,29.01
2018-06-15T14:31:26.079Z,29.28
2018-06-15T14:36:29.422Z,29.71
2018-06-15T14:41:32.835Z,30.37
2018-06-15T14:46:36.379Z,30.84
2018-06-15T14:51:40.108Z,31.15
2018-06-15T14:56:43.494Z,30.45
2018-06-15T15:01:47.675Z,30.88
2018-06-15T15:06:51.206Z,31.92
2018-06-15T15:11:55.310Z,32.04
2018-06-15T15:16:58.927Z,32.30
2018-06-15T15:22:02.265Z,31.51
2018-06-15T15:27:05.608Z,29.03
2018-06-15T15:32:09.059Z,29.84
2018-06-15T15:37:18.026Z,30.52
2018-06-15T15:42:21.366Z,30.54
2018-06-15T15:47:24.699Z,30.09
2018-06-15T15:52:28.029Z,30.04
2018-06-15T15:57:31.368Z,29.88
2018-06-15T16:02:34.695Z,30.00
2018-06-15T16:07:38.071Z,30.78
2018-06-15T16:12:41.544Z,31.18
2018-06-15T16:17:45.000Z,28.71
2018-06-15T16:22:48.339Z,30.05
2018-06-15T16:27:51.822Z,29.40
2018-06-15T16:32:55.161Z,31.11
2018-06-15T16:37:58.598Z,30.61
2018-06-15T16:43:02.847Z,31.27
2018-06-15T16:48:06.277Z,32.03
2018-06-15T16:53:09.618Z,31.25
2018-06-15T16:58:12.949Z,31.51
2018-06-15T17:03:16.277Z,31.81
2018-06-15T17:13:57.127Z,31.89
2018-06-15T17:19:01.225Z,31.90
2018-06-15T17:24:04.578Z,31.55
2018-06-15T17:29:07.928Z,31.50
2018-06-15T17:34:11.294Z,31.14
2018-06-15T17:39:15.387Z,30.89
2018-06-15T17:44:18.743Z,30.85
2018-06-15T17:49:22.955Z,31.02
2018-06-15T17:54:27.113Z,30.38
2018-06-15T17:59:37.770Z,29.41
2018-06-15T18:04:41.090Z,29.29
2018-06-15T18:09:45.517Z,29.40
2018-06-15T18:14:49.630Z,29.20
2018-06-15T18:19:52.958Z,29.02
2018-06-15T18:24:56.292Z,28.91
2018-06-15T18:30:00.471Z,28.87
2018-06-15T18:35:03.840Z,28.81
2018-06-15T18:40:18.655Z,28.63
2018-06-15T18:45:21.983Z,28.46
2018-06-15T18:50:51.484Z,28.33
2018-06-15T18:55:54.821Z,28.12
2018-06-15T19:00:58.150Z,27.85
2018-06-15T19:06:02.833Z,27.52
2018-06-15T19:11:06.330Z,27.26
2018-06-15T19:16:11.077Z,26.92
2018-06-15T19:21:14.979Z,26.66
2018-06-15T19:26:18.326Z,26.45
2018-06-15T19:31:21.703Z,26.06
2018-06-15T19:36:25.049Z,25.81
2018-06-15T19:41:28.393Z,25.58
2018-06-15T19:46:32.499Z,25.49
2018-06-15T19:51:35.902Z,25.47
2018-06-15T19:56:39.560Z,25.47
2018-06-15T20:01:42.944Z,25.36
2018-06-15T20:06:46.542Z,25.04
2018-06-15T20:11:49.879Z,24.14
2018-06-15T20:16:53.219Z,24.03
2018-06-15T20:21:56.554Z,24.08
2018-06-15T20:26:59.887Z,24.18
2018-06-15T20:32:03.219Z,24.28
2018-06-15T20:37:06.582Z,24.34
2018-06-15T20:42:09.914Z,24.37
2018-06-15T20:47:13.250Z,24.24
2018-06-15T20:52:16.610Z,24.07
2018-06-15T20:57:19.938Z,23.93
2018-06-15T21:02:23.271Z,23.07
2018-06-15T21:07:27.035Z,22.66
2018-06-15T21:12:31.125Z,22.64
2018-06-15T21:17:34.650Z,22.59
2018-06-15T21:22:38.007Z,22.43
2018-06-15T21:27:42.358Z,22.33
2018-06-15T21:32:46.206Z,22.20
2018-06-15T21:37:49.583Z,22.04
2018-06-15T21:42:53.679Z,22.06
2018-06-15T21:47:57.042Z,22.05
2018-06-15T21:53:00.400Z,21.95
2018-06-15T21:58:03.731Z,21.88
2018-06-15T22:03:07.060Z,21.88
2018-06-15T22:08:11.158Z,21.86
2018-06-15T22:13:14.503Z,21.75
2018-06-15T22:18:18.607Z,21.48
2018-06-15T22:23:21.947Z,21.09
2018-06-15T22:28:26.050Z,20.90
